Terminal Aerodrome Forecast
Issued by NWS Charleston, WV

Current Version | Previous Version | Text Only | Print | Product List | Glossary Off
Versions: 1 2 3 4 5 6 7 8 9 10 11 12 13 14 15 16 17 18 19 20 21 22 23 24 25 26 27 28

000
FTUS41 KRLX 271100
TAFPKB
TAF
KPKB 271127Z 2712/2812 20006KT P6SM SCT040 BKN100
     FM271400 22008KT P6SM VCTS BKN050CB
     FM271600 24010G20KT 4SM +TSRA BKN040CB
     FM272100 25010G16KT P6SM BKN045
     FM280300 27008KT P6SM BKN035
     FM280600 29006KT P6SM BKN025
      AMD NOT SKED=

USA.gov is the U.S. government's official web portal to all federal, state and local government web resources and services.